Time;durP1;ratioP1;P1;durP2;ratioP2;P2;SDS_P1;SDS_P2;PMS_P1;PMS_P2;Temp;Humidity;BMP_temperature;BMP_pressure;BME280_temperature;BME280_humidity;BME280_pressure;Samples;Min_cycle;Max_cycle;Signal;HPM_P1;HPM_P2
2022/03/07 00:02:12;;;;;;;7.88;1.90;;;;;;;;;;5070396;28;20051;-67
2022/03/07 00:04:37;;;;;;;10.05;2.42;;;;;;;;;;5067573;28;20036;-68
2022/03/07 00:07:06;;;;;;;9.07;1.92;;;;;;;;;;5068025;28;20028;-68
2022/03/07 00:09:31;;;;;;;8.77;2.20;;;;;;;;;;5069859;28;20020;-70
2022/03/07 00:11:57;;;;;;;9.05;1.67;;;;;;;;;;5068425;28;20024;-68
2022/03/07 00:14:22;;;;;;;10.50;1.83;;;;;;;;;;5068998;28;20124;-67
2022/03/07 00:16:48;;;;;;;5.68;1.80;;;;;;;;;;5068416;28;20032;-68
2022/03/07 00:19:14;;;;;;;9.00;2.03;;;;;;;;;;5067554;28;20063;-68
2022/03/07 00:21:39;;;;;;;6.53;1.95;;;;;;;;;;5069454;28;20032;-68
2022/03/07 00:24:06;;;;;;;11.85;2.10;;;;;;;;;;5069724;28;20035;-68
2022/03/07 00:26:35;;;;;;;4.72;1.88;;;;;;;;;;5068653;28;20131;-68
2022/03/07 00:29:02;;;;;;;6.43;2.00;;;;;;;;;;5069288;28;20086;-68
2022/03/07 00:31:28;;;;;;;8.07;2.00;;;;;;;;;;5069359;28;20345;-70
2022/03/07 00:33:55;;;;;;;7.93;2.15;;;;;;;;;;5067278;28;20063;-68
2022/03/07 00:36:21;;;;;;;8.38;2.03;;;;;;;;;;5069205;28;20249;-69
2022/03/07 00:38:50;;;;;;;11.93;2.15;;;;;;;;;;5068253;28;20486;-68
2022/03/07 00:41:15;;;;;;;13.65;2.10;;;;;;;;;;5051799;28;20484;-68
2022/03/07 00:43:40;;;;;;;8.02;2.28;;;;;;;;;;5067986;28;20028;-69
2022/03/07 00:46:06;;;;;;;11.40;3.00;;;;;;;;;;5068596;28;20036;-68
2022/03/07 00:48:34;;;;;;;10.07;2.10;;;;;;;;;;5067258;28;20070;-68
2022/03/07 00:51:00;;;;;;;6.85;1.70;;;;;;;;;;5049720;28;20119;-68
2022/03/07 00:53:28;;;;;;;10.13;2.00;;;;;;;;;;5069388;28;20134;-68
2022/03/07 00:55:54;;;;;;;12.25;1.95;;;;;;;;;;5082065;28;20722;-67
2022/03/07 00:58:19;;;;;;;9.57;2.00;;;;;;;;;;5068106;28;20093;-68
2022/03/07 01:00:45;;;;;;;5.55;1.73;;;;;;;;;;5066632;28;20592;-68
2022/03/07 01:03:12;;;;;;;8.77;2.00;;;;;;;;;;5067604;28;20028;-68
2022/03/07 01:05:38;;;;;;;9.02;2.28;;;;;;;;;;5067652;28;20107;-67
2022/03/07 01:08:04;;;;;;;9.02;2.05;;;;;;;;;;5050147;28;20561;-68
2022/03/07 01:10:29;;;;;;;10.37;2.20;;;;;;;;;;5065796;28;20031;-68
2022/03/07 01:12:55;;;;;;;6.67;2.43;;;;;;;;;;5068376;28;20062;-68
2022/03/07 01:15:20;;;;;;;8.90;2.40;;;;;;;;;;5068785;28;20069;-68
2022/03/07 01:17:46;;;;;;;9.37;2.50;;;;;;;;;;5067083;28;20163;-68
2022/03/07 01:20:11;;;;;;;7.07;2.50;;;;;;;;;;5068348;28;20435;-68
2022/03/07 01:22:37;;;;;;;12.30;2.77;;;;;;;;;;5067894;28;20047;-68
2022/03/07 01:25:03;;;;;;;9.63;2.37;;;;;;;;;;5044704;28;20067;-68
2022/03/07 01:27:29;;;;;;;8.47;2.50;;;;;;;;;;5068224;28;20036;-68
2022/03/07 01:29:54;;;;;;;9.23;2.43;;;;;;;;;;5068095;28;20141;-68
2022/03/07 01:32:19;;;;;;;9.70;2.47;;;;;;;;;;5067772;28;20027;-68
2022/03/07 01:34:44;;;;;;;12.83;2.77;;;;;;;;;;5068264;28;20569;-68
2022/03/07 01:37:10;;;;;;;9.37;2.27;;;;;;;;;;5063486;28;20123;-68
2022/03/07 01:39:35;;;;;;;9.80;2.27;;;;;;;;;;5066068;28;20040;-68
2022/03/07 01:42:01;;;;;;;6.57;2.07;;;;;;;;;;5064359;28;20505;-67
2022/03/07 01:44:29;;;;;;;7.15;2.30;;;;;;;;;;5049694;28;20040;-68
2022/03/07 01:46:55;;;;;;;8.73;2.10;;;;;;;;;;5066268;28;20085;-68
2022/03/07 01:49:23;;;;;;;6.83;2.07;;;;;;;;;;5061328;28;20123;-68
2022/03/07 01:51:51;;;;;;;7.40;2.70;;;;;;;;;;5044292;28;20020;-68
2022/03/07 01:54:18;;;;;;;8.25;2.08;;;;;;;;;;5064707;28;20438;-72
2022/03/07 01:56:47;;;;;;;11.13;2.70;;;;;;;;;;5066701;28;20039;-71
2022/03/07 01:59:14;;;;;;;9.18;2.55;;;;;;;;;;5059751;28;20138;-72
2022/03/07 02:01:39;;;;;;;8.55;2.10;;;;;;;;;;5066406;28;20402;-72
2022/03/07 02:04:05;;;;;;;11.23;2.85;;;;;;;;;;5066382;28;20043;-72
2022/03/07 02:06:32;;;;;;;12.52;2.28;;;;;;;;;;5066626;28;20479;-71
2022/03/07 02:08:58;;;;;;;18.95;2.20;;;;;;;;;;5066401;28;20085;-72
2022/03/07 02:11:24;;;;;;;11.38;2.22;;;;;;;;;;5065783;28;20051;-72
2022/03/07 02:13:50;;;;;;;11.13;2.33;;;;;;;;;;5066694;28;20071;-73
2022/03/07 02:16:19;;;;;;;5.70;1.75;;;;;;;;;;5066235;28;20127;-72
2022/03/07 02:18:45;;;;;;;11.35;2.50;;;;;;;;;;5066270;28;20036;-73
2022/03/07 02:21:14;;;;;;;8.73;2.50;;;;;;;;;;5064458;28;20481;-71
2022/03/07 02:23:39;;;;;;;6.95;2.55;;;;;;;;;;5049767;28;20039;-72
2022/03/07 02:26:09;;;;;;;10.30;1.92;;;;;;;;;;5066441;28;20511;-72
2022/03/07 02:28:36;;;;;;;13.77;2.53;;;;;;;;;;5066735;28;20128;-72
2022/03/07 02:31:01;;;;;;;12.35;2.20;;;;;;;;;;5065398;28;20428;-72
2022/03/07 02:33:29;;;;;;;8.15;2.35;;;;;;;;;;5065428;28;20483;-71
2022/03/07 02:35:56;;;;;;;10.55;2.20;;;;;;;;;;5066092;28;20478;-72
2022/03/07 02:38:21;;;;;;;9.30;2.20;;;;;;;;;;5066220;28;20089;-72
2022/03/07 02:40:46;;;;;;;8.88;2.10;;;;;;;;;;5044959;28;20052;-73
2022/03/07 02:43:12;;;;;;;7.18;1.83;;;;;;;;;;5065667;28;20398;-72
2022/03/07 02:45:37;;;;;;;9.50;2.28;;;;;;;;;;5066338;28;20483;-72
2022/03/07 02:48:02;;;;;;;7.97;2.00;;;;;;;;;;5062860;28;20464;-72
2022/03/07 02:50:28;;;;;;;7.90;2.03;;;;;;;;;;5066306;28;20492;-72
2022/03/07 02:52:56;;;;;;;12.73;2.60;;;;;;;;;;5064365;28;20097;-72
2022/03/07 02:55:22;;;;;;;7.88;2.20;;;;;;;;;;5066172;28;20240;-72
2022/03/07 02:57:48;;;;;;;4.35;1.65;;;;;;;;;;5065752;28;20024;-73
2022/03/07 03:00:13;;;;;;;6.18;1.85;;;;;;;;;;5065682;28;20058;-72
2022/03/07 03:02:38;;;;;;;7.65;1.95;;;;;;;;;;5065453;28;20032;-72
2022/03/07 03:05:03;;;;;;;8.10;2.17;;;;;;;;;;5060665;28;20044;-72
2022/03/07 03:07:29;;;;;;;8.27;2.53;;;;;;;;;;5060957;28;20032;-68
2022/03/07 03:09:55;;;;;;;8.82;2.28;;;;;;;;;;5066484;28;20066;-68
2022/03/07 03:12:24;;;;;;;8.77;1.95;;;;;;;;;;5069434;28;20047;-69
2022/03/07 03:14:49;;;;;;;7.18;1.73;;;;;;;;;;5069797;28;20032;-68
2022/03/07 03:17:16;;;;;;;8.02;2.10;;;;;;;;;;5070665;28;20050;-68
2022/03/07 03:19:43;;;;;;;11.88;2.10;;;;;;;;;;5070126;28;20031;-68
2022/03/07 03:22:11;;;;;;;7.93;2.05;;;;;;;;;;5070619;28;20062;-68
2022/03/07 03:24:37;;;;;;;8.55;2.10;;;;;;;;;;5069893;28;20028;-69
2022/03/07 03:27:03;;;;;;;7.95;2.13;;;;;;;;;;5070140;28;20504;-69
2022/03/07 03:29:29;;;;;;;7.63;2.15;;;;;;;;;;5069730;28;20043;-68
2022/03/07 03:31:55;;;;;;;8.77;2.40;;;;;;;;;;5068899;28;20036;-69
2022/03/07 03:34:20;;;;;;;11.23;2.33;;;;;;;;;;5069805;28;20134;-68
2022/03/07 03:36:46;;;;;;;7.75;2.13;;;;;;;;;;5069639;28;20027;-69
2022/03/07 03:39:12;;;;;;;8.68;2.30;;;;;;;;;;5068063;28;20125;-69
2022/03/07 03:41:40;;;;;;;8.15;2.20;;;;;;;;;;5070410;28;20055;-69
2022/03/07 03:44:05;;;;;;;13.02;2.47;;;;;;;;;;5068807;28;20054;-69
2022/03/07 03:46:31;;;;;;;10.18;2.10;;;;;;;;;;5065539;28;20032;-68
2022/03/07 03:48:56;;;;;;;11.05;2.63;;;;;;;;;;5068678;28;20107;-69
2022/03/07 03:51:22;;;;;;;10.48;2.47;;;;;;;;;;5065147;28;20141;-68
2022/03/07 03:53:47;;;;;;;8.88;2.40;;;;;;;;;;5069652;28;20043;-68
2022/03/07 03:56:12;;;;;;;10.25;2.60;;;;;;;;;;5070353;28;20472;-69
2022/03/07 03:58:40;;;;;;;9.18;2.30;;;;;;;;;;5069201;28;20032;-69
2022/03/07 04:01:13;;;;;;;5.93;2.40;;;;;;;;;;5069898;28;20039;-68
2022/03/07 04:03:38;;;;;;;8.68;2.28;;;;;;;;;;5068586;28;20040;-68
2022/03/07 04:06:06;;;;;;;11.95;2.33;;;;;;;;;;5067764;28;20425;-67
2022/03/07 04:08:32;;;;;;;6.35;2.15;;;;;;;;;;5067883;28;20364;-67
2022/03/07 04:10:58;;;;;;;9.70;2.13;;;;;;;;;;5069289;28;20230;-68
2022/03/07 04:13:23;;;;;;;9.25;2.60;;;;;;;;;;5069186;28;20578;-68
2022/03/07 04:15:48;;;;;;;9.65;2.40;;;;;;;;;;5067884;28;20063;-68
2022/03/07 04:18:16;;;;;;;8.02;2.70;;;;;;;;;;5068568;28;20499;-68
2022/03/07 04:20:42;;;;;;;11.90;2.70;;;;;;;;;;5066776;28;20059;-67
2022/03/07 04:23:08;;;;;;;9.18;2.30;;;;;;;;;;5066444;28;20035;-69
2022/03/07 04:25:33;;;;;;;8.07;2.22;;;;;;;;;;5069203;28;20036;-69
2022/03/07 04:28:02;;;;;;;9.35;2.58;;;;;;;;;;5068697;28;20035;-69
2022/03/07 04:30:28;;;;;;;6.97;2.63;;;;;;;;;;5063629;28;20031;-68
2022/03/07 04:32:53;;;;;;;9.35;2.67;;;;;;;;;;5066173;28;20437;-68
2022/03/07 04:35:19;;;;;;;7.15;2.70;;;;;;;;;;5066773;28;20032;-69
2022/03/07 04:37:44;;;;;;;5.88;2.60;;;;;;;;;;5068438;28;20041;-69
2022/03/07 04:40:11;;;;;;;8.93;2.90;;;;;;;;;;5069466;28;20499;-68
2022/03/07 04:42:37;;;;;;;9.23;3.23;;;;;;;;;;5067164;28;20130;-69
2022/03/07 04:45:03;;;;;;;7.70;2.70;;;;;;;;;;5063831;28;20938;-69
2022/03/07 04:47:28;;;;;;;9.32;3.28;;;;;;;;;;5065315;28;20474;-67
2022/03/07 04:49:53;;;;;;;8.37;3.00;;;;;;;;;;5068944;28;20036;-68
2022/03/07 04:52:19;;;;;;;13.77;3.20;;;;;;;;;;5067410;28;20359;-68
2022/03/07 04:54:44;;;;;;;10.33;3.37;;;;;;;;;;5066880;28;20060;-68
2022/03/07 04:57:10;;;;;;;9.20;3.30;;;;;;;;;;5069002;28;20149;-69
2022/03/07 04:59:36;;;;;;;6.45;3.25;;;;;;;;;;5068760;28;20032;-68
2022/03/07 05:02:02;;;;;;;10.63;3.60;;;;;;;;;;5068394;28;20082;-68
2022/03/07 05:04:27;;;;;;;10.10;4.23;;;;;;;;;;5068300;28;20084;-68
2022/03/07 05:06:53;;;;;;;10.10;4.03;;;;;;;;;;5067654;28;20107;-68
2022/03/07 05:09:18;;;;;;;13.80;4.53;;;;;;;;;;5068469;28;20123;-68
2022/03/07 05:11:44;;;;;;;10.23;4.67;;;;;;;;;;5046316;28;20174;-68
2022/03/07 05:14:09;;;;;;;13.23;5.00;;;;;;;;;;5067726;28;20533;-68
2022/03/07 05:16:37;;;;;;;12.80;5.17;;;;;;;;;;5068200;28;20184;-68
2022/03/07 05:19:02;;;;;;;9.43;5.20;;;;;;;;;;5067272;28;20830;-68
2022/03/07 05:21:29;;;;;;;11.90;5.30;;;;;;;;;;5066514;28;20192;-68
2022/03/07 05:23:54;;;;;;;14.50;5.73;;;;;;;;;;5066208;28;20041;-68
2022/03/07 05:26:19;;;;;;;12.40;5.53;;;;;;;;;;5068179;28;20034;-68
2022/03/07 05:28:45;;;;;;;13.82;5.80;;;;;;;;;;5067239;28;20461;-68
2022/03/07 05:31:13;;;;;;;13.40;6.30;;;;;;;;;;5067768;28;20566;-68
2022/03/07 05:33:41;;;;;;;13.27;6.03;;;;;;;;;;5066042;28;20036;-68
2022/03/07 05:36:07;;;;;;;17.90;6.18;;;;;;;;;;5066581;28;20040;-68
2022/03/07 05:38:34;;;;;;;16.30;6.88;;;;;;;;;;5068471;28;20037;-68
2022/03/07 05:40:59;;;;;;;18.75;6.60;;;;;;;;;;5066756;28;20145;-67
2022/03/07 05:43:24;;;;;;;14.05;5.72;;;;;;;;;;5065798;28;20031;-67
2022/03/07 05:45:50;;;;;;;16.23;6.68;;;;;;;;;;5066280;28;20312;-67
2022/03/07 05:48:16;;;;;;;9.45;5.30;;;;;;;;;;5044891;28;20499;-67
2022/03/07 05:50:41;;;;;;;13.38;5.85;;;;;;;;;;5066916;28;20036;-68
2022/03/07 05:53:07;;;;;;;14.55;6.68;;;;;;;;;;5048957;28;21913;-68
2022/03/07 05:55:32;;;;;;;12.23;5.68;;;;;;;;;;5067615;28;20494;-68
2022/03/07 05:58:04;;;;;;;11.20;5.80;;;;;;;;;;5067274;28;20040;-69
2022/03/07 06:00:30;;;;;;;9.43;5.70;;;;;;;;;;5067049;28;20098;-70
2022/03/07 06:02:55;;;;;;;14.73;5.90;;;;;;;;;;5066905;28;20163;-68
2022/03/07 06:05:21;;;;;;;11.57;6.32;;;;;;;;;;5067449;28;20047;-68
2022/03/07 06:07:47;;;;;;;19.05;8.30;;;;;;;;;;5062182;28;20124;-68
2022/03/07 06:10:12;;;;;;;12.05;7.18;;;;;;;;;;5063043;28;20063;-69
2022/03/07 06:12:37;;;;;;;16.55;6.68;;;;;;;;;;5066180;28;20073;-68
2022/03/07 06:15:04;;;;;;;17.27;7.53;;;;;;;;;;5067383;28;20143;-69
2022/03/07 06:17:33;;;;;;;14.75;7.55;;;;;;;;;;5066853;28;20598;-69
2022/03/07 06:20:01;;;;;;;13.77;6.97;;;;;;;;;;5068793;28;20073;-69
2022/03/07 06:22:29;;;;;;;11.20;6.25;;;;;;;;;;5067500;28;20368;-69
2022/03/07 06:24:54;;;;;;;15.93;6.95;;;;;;;;;;5067105;28;20309;-69
2022/03/07 06:27:20;;;;;;;12.18;6.47;;;;;;;;;;5067686;28;20024;-68
2022/03/07 06:29:45;;;;;;;16.02;7.45;;;;;;;;;;5067085;28;20055;-73
2022/03/07 06:32:15;;;;;;;21.20;8.20;;;;;;;;;;5067578;28;20031;-73
2022/03/07 06:34:40;;;;;;;14.70;7.32;;;;;;;;;;5065283;28;20119;-73
2022/03/07 06:37:05;;;;;;;15.55;8.45;;;;;;;;;;5048495;28;20155;-73
2022/03/07 06:39:31;;;;;;;16.58;8.93;;;;;;;;;;5065188;28;20024;-73
2022/03/07 06:41:56;;;;;;;16.67;8.68;;;;;;;;;;5067837;28;20040;-73
2022/03/07 06:44:22;;;;;;;17.75;9.75;;;;;;;;;;5066296;28;20079;-72
2022/03/07 06:46:49;;;;;;;16.88;10.20;;;;;;;;;;5068500;28;20032;-71
2022/03/07 06:49:14;;;;;;;20.80;11.48;;;;;;;;;;5070200;28;20199;-73
2022/03/07 06:51:39;;;;;;;22.38;10.73;;;;;;;;;;5070538;28;20527;-73
2022/03/07 06:54:05;;;;;;;18.25;10.25;;;;;;;;;;5070124;28;20044;-72
2022/03/07 06:56:30;;;;;;;18.00;10.40;;;;;;;;;;5069830;28;20028;-72
2022/03/07 06:58:56;;;;;;;21.92;10.70;;;;;;;;;;5069438;28;20097;-72
2022/03/07 07:01:21;;;;;;;15.77;10.65;;;;;;;;;;5067845;28;20020;-73
2022/03/07 07:03:46;;;;;;;19.08;10.48;;;;;;;;;;5068290;28;20046;-72
2022/03/07 07:06:15;;;;;;;18.48;11.00;;;;;;;;;;5069694;28;20440;-73
2022/03/07 07:08:40;;;;;;;20.52;11.25;;;;;;;;;;5069795;28;20040;-72
2022/03/07 07:11:05;;;;;;;17.33;10.48;;;;;;;;;;5069382;28;20060;-72
2022/03/07 07:13:33;;;;;;;16.80;11.13;;;;;;;;;;5069285;28;20031;-72
2022/03/07 07:15:58;;;;;;;18.02;10.02;;;;;;;;;;5069192;28;20506;-73
2022/03/07 07:18:24;;;;;;;20.58;9.82;;;;;;;;;;5066855;28;20093;-72
2022/03/07 07:20:52;;;;;;;16.98;9.68;;;;;;;;;;5069286;28;20020;-73
2022/03/07 07:23:21;;;;;;;15.45;9.60;;;;;;;;;;5052886;28;20122;-72
2022/03/07 07:25:47;;;;;;;16.35;9.65;;;;;;;;;;5069851;28;20039;-72
2022/03/07 07:28:12;;;;;;;13.23;8.93;;;;;;;;;;5069298;28;20202;-72
2022/03/07 07:30:38;;;;;;;19.15;9.02;;;;;;;;;;5070666;28;20019;-72
2022/03/07 07:33:04;;;;;;;16.15;8.52;;;;;;;;;;5064807;28;20032;-72
2022/03/07 07:35:29;;;;;;;15.23;8.93;;;;;;;;;;5069929;28;20026;-73
2022/03/07 07:37:57;;;;;;;11.63;7.93;;;;;;;;;;5051427;28;20114;-72
2022/03/07 07:40:22;;;;;;;18.42;8.85;;;;;;;;;;5069132;28;20731;-73
2022/03/07 07:42:47;;;;;;;12.52;7.70;;;;;;;;;;5069054;28;20345;-73
2022/03/07 07:45:13;;;;;;;15.68;7.78;;;;;;;;;;5068688;28;20024;-72
2022/03/07 07:47:39;;;;;;;12.65;8.20;;;;;;;;;;5068764;28;20069;-71
2022/03/07 07:50:04;;;;;;;13.88;8.10;;;;;;;;;;5063614;28;20028;-72
2022/03/07 07:52:30;;;;;;;13.02;7.97;;;;;;;;;;5034485;28;20039;-71
2022/03/07 07:54:57;;;;;;;12.20;8.23;;;;;;;;;;5068853;28;20059;-72
2022/03/07 07:57:25;;;;;;;13.40;7.45;;;;;;;;;;5065909;28;20352;-68
2022/03/07 07:59:51;;;;;;;12.30;8.02;;;;;;;;;;5069398;28;20099;-68
2022/03/07 08:02:19;;;;;;;14.73;8.27;;;;;;;;;;5069161;28;20032;-69
2022/03/07 08:04:44;;;;;;;14.05;8.07;;;;;;;;;;5069598;28;20113;-69
2022/03/07 08:07:09;;;;;;;10.48;7.47;;;;;;;;;;5069012;28;20032;-69
2022/03/07 08:09:35;;;;;;;10.30;6.65;;;;;;;;;;5069953;28;20032;-69
2022/03/07 08:12:01;;;;;;;11.52;6.85;;;;;;;;;;5069133;28;20043;-69
2022/03/07 08:14:26;;;;;;;10.57;6.65;;;;;;;;;;5068651;28;20419;-69
2022/03/07 08:16:52;;;;;;;12.25;6.40;;;;;;;;;;5070140;28;20127;-69
2022/03/07 08:19:17;;;;;;;10.13;6.82;;;;;;;;;;5069516;28;20388;-69
2022/03/07 08:21:43;;;;;;;9.35;5.80;;;;;;;;;;5069691;28;20086;-69
2022/03/07 08:24:08;;;;;;;12.35;6.68;;;;;;;;;;5069601;28;20067;-68
2022/03/07 08:26:34;;;;;;;8.15;6.40;;;;;;;;;;5069731;28;20050;-68
2022/03/07 08:29:00;;;;;;;11.85;6.82;;;;;;;;;;5069199;28;20042;-68
2022/03/07 08:31:25;;;;;;;12.57;7.13;;;;;;;;;;5050696;28;20490;-68
2022/03/07 08:33:50;;;;;;;11.45;7.50;;;;;;;;;;5069040;28;20028;-68
2022/03/07 08:36:16;;;;;;;11.02;7.40;;;;;;;;;;5068633;28;20130;-68
2022/03/07 08:38:41;;;;;;;11.75;7.82;;;;;;;;;;5069422;28;20126;-68
2022/03/07 08:41:07;;;;;;;11.57;8.23;;;;;;;;;;5069560;28;20039;-68
2022/03/07 08:43:33;;;;;;;13.10;7.90;;;;;;;;;;5064602;28;20024;-67
2022/03/07 08:45:58;;;;;;;13.40;8.25;;;;;;;;;;5069119;28;20633;-67
2022/03/07 08:48:24;;;;;;;13.23;8.50;;;;;;;;;;5068838;28;20095;-69
2022/03/07 08:50:49;;;;;;;15.63;8.50;;;;;;;;;;5068458;28;20043;-68
2022/03/07 08:53:20;;;;;;;12.07;8.65;;;;;;;;;;5069097;28;20294;-69
2022/03/07 08:55:46;;;;;;;11.02;8.27;;;;;;;;;;5067862;28;20064;-68
2022/03/07 08:58:11;;;;;;;10.07;8.20;;;;;;;;;;5069060;28;20131;-68
2022/03/07 09:00:37;;;;;;;12.07;7.78;;;;;;;;;;5066951;28;20059;-68
2022/03/07 09:03:05;;;;;;;12.02;8.02;;;;;;;;;;5065256;28;20123;-68
2022/03/07 09:05:31;;;;;;;12.23;8.15;;;;;;;;;;5067738;28;20036;-67
2022/03/07 09:07:57;;;;;;;11.88;7.85;;;;;;;;;;5083881;28;20062;-68
2022/03/07 09:10:24;;;;;;;11.93;8.13;;;;;;;;;;5068142;28;20280;-68
2022/03/07 09:12:50;;;;;;;11.88;8.32;;;;;;;;;;5068340;28;20127;-69
2022/03/07 09:15:15;;;;;;;10.43;7.63;;;;;;;;;;5066352;28;20044;-69
2022/03/07 09:17:41;;;;;;;11.40;7.70;;;;;;;;;;5067150;28;20660;-69
2022/03/07 09:20:07;;;;;;;11.60;7.68;;;;;;;;;;5067971;28;20507;-69
2022/03/07 09:22:33;;;;;;;11.73;7.47;;;;;;;;;;5068031;28;20328;-69
2022/03/07 09:24:58;;;;;;;10.10;7.20;;;;;;;;;;5065746;28;20151;-68
2022/03/07 09:27:24;;;;;;;9.35;6.70;;;;;;;;;;5064960;28;20024;-68
2022/03/07 09:29:49;;;;;;;11.38;6.80;;;;;;;;;;5066534;28;20046;-69
2022/03/07 09:32:15;;;;;;;10.55;7.90;;;;;;;;;;5067641;28;20604;-69
2022/03/07 09:34:41;;;;;;;9.40;6.90;;;;;;;;;;5066258;28;20028;-69
2022/03/07 09:37:06;;;;;;;10.38;8.13;;;;;;;;;;5068844;28;20063;-69
2022/03/07 09:39:33;;;;;;;19.55;8.20;;;;;;;;;;5067705;28;20557;-69
2022/03/07 09:41:58;;;;;;;7.95;6.85;;;;;;;;;;5068150;28;20038;-69
2022/03/07 09:44:27;;;;;;;11.93;7.15;;;;;;;;;;5067542;28;20032;-68
2022/03/07 09:46:59;;;;;;;9.95;7.07;;;;;;;;;;5066218;28;20123;-68
2022/03/07 09:49:25;;;;;;;11.48;7.05;;;;;;;;;;5065915;28;20024;-68
2022/03/07 09:51:53;;;;;;;13.18;8.18;;;;;;;;;;5067972;28;20305;-67
2022/03/07 09:54:18;;;;;;;12.27;7.97;;;;;;;;;;5067170;28;20136;-71
2022/03/07 09:56:44;;;;;;;10.40;8.00;;;;;;;;;;5068237;28;20041;-68
2022/03/07 09:59:09;;;;;;;8.95;7.30;;;;;;;;;;5067872;28;20020;-68
2022/03/07 10:01:36;;;;;;;10.52;7.60;;;;;;;;;;5067508;28;20028;-69
2022/03/07 10:04:11;;;;;;;12.23;8.00;;;;;;;;;;5067284;28;20038;-69
2022/03/07 10:06:40;;;;;;;9.07;6.97;;;;;;;;;;5067275;28;20534;-67
2022/03/07 10:09:06;;;;;;;11.75;7.40;;;;;;;;;;5062340;28;20063;-69
2022/03/07 10:11:34;;;;;;;12.15;7.07;;;;;;;;;;5066411;28;21883;-68
2022/03/07 10:14:02;;;;;;;9.63;7.40;;;;;;;;;;5067685;28;20025;-68
2022/03/07 10:16:41;;;;;;;10.55;7.07;;;;;;;;;;5066896;28;20493;-69
2022/03/07 10:19:11;;;;;;;11.02;7.32;;;;;;;;;;5067628;28;20040;-68
2022/03/07 10:21:39;;;;;;;11.85;7.13;;;;;;;;;;5061873;28;20428;-68
2022/03/07 10:24:05;;;;;;;10.80;7.22;;;;;;;;;;5071888;28;20108;-68
2022/03/07 10:26:34;;;;;;;10.82;7.47;;;;;;;;;;5069177;28;20043;-69
2022/03/07 10:29:03;;;;;;;9.55;7.53;;;;;;;;;;5070717;28;20545;-69
2022/03/07 10:31:28;;;;;;;9.48;6.93;;;;;;;;;;5066406;28;20065;-70
2022/03/07 10:34:02;;;;;;;9.77;6.97;;;;;;;;;;5070685;28;20162;-70
2022/03/07 10:36:33;;;;;;;10.40;6.88;;;;;;;;;;5070572;28;20036;-68
2022/03/07 10:39:01;;;;;;;11.10;7.00;;;;;;;;;;5065710;28;20039;-67
2022/03/07 10:41:35;;;;;;;7.68;6.43;;;;;;;;;;5069636;28;20395;-68
2022/03/07 10:44:01;;;;;;;8.23;6.68;;;;;;;;;;5070131;28;21950;-67
2022/03/07 10:46:29;;;;;;;8.98;6.93;;;;;;;;;;5065234;28;20471;-67
2022/03/07 10:48:54;;;;;;;8.85;6.40;;;;;;;;;;5068861;28;20559;-68
2022/03/07 10:51:20;;;;;;;6.90;6.18;;;;;;;;;;5071588;28;20028;-68
2022/03/07 10:53:46;;;;;;;8.48;6.15;;;;;;;;;;5070553;28;20053;-69
2022/03/07 10:56:15;;;;;;;9.82;6.35;;;;;;;;;;5063762;28;20102;-68
2022/03/07 10:58:49;;;;;;;8.68;6.07;;;;;;;;;;5070444;28;20056;-69
2022/03/07 11:01:28;;;;;;;9.02;6.30;;;;;;;;;;5071289;28;20060;-69
2022/03/07 11:03:54;;;;;;;10.05;6.30;;;;;;;;;;5070015;28;20024;-68
2022/03/07 11:06:20;;;;;;;7.78;6.22;;;;;;;;;;5069894;28;20028;-68
2022/03/07 11:08:46;;;;;;;7.70;5.07;;;;;;;;;;5070869;28;20054;-68
2022/03/07 11:11:13;;;;;;;8.38;5.13;;;;;;;;;;5070315;28;20432;-68
2022/03/07 11:13:39;;;;;;;6.32;5.25;;;;;;;;;;5051312;28;20031;-68
2022/03/07 11:16:05;;;;;;;8.68;5.95;;;;;;;;;;5070124;28;20028;-68
2022/03/07 11:18:31;;;;;;;7.20;5.13;;;;;;;;;;5069727;28;20187;-68
2022/03/07 11:20:57;;;;;;;8.65;5.20;;;;;;;;;;5069938;28;20567;-69
2022/03/07 11:23:23;;;;;;;8.68;5.53;;;;;;;;;;5070026;28;20388;-68
2022/03/07 11:25:56;;;;;;;6.40;5.20;;;;;;;;;;5069839;28;20032;-67
2022/03/07 11:28:23;;;;;;;8.02;6.00;;;;;;;;;;5069816;28;20019;-68
2022/03/07 11:30:51;;;;;;;6.78;5.68;;;;;;;;;;5070222;28;20020;-68
2022/03/07 11:33:20;;;;;;;7.57;5.82;;;;;;;;;;5063888;28;20297;-69
2022/03/07 11:35:47;;;;;;;7.00;5.65;;;;;;;;;;5066840;28;20034;-68
2022/03/07 11:38:14;;;;;;;8.98;5.78;;;;;;;;;;5051215;28;20032;-68
2022/03/07 11:41:00;;;;;;;8.35;6.22;;;;;;;;;;5069979;28;20035;-68
2022/03/07 11:43:26;;;;;;;7.60;6.00;;;;;;;;;;5067843;28;20070;-68
2022/03/07 11:45:53;;;;;;;8.60;5.82;;;;;;;;;;5069090;28;20039;-68
2022/03/07 11:48:18;;;;;;;7.70;5.63;;;;;;;;;;5068859;28;20020;-68
2022/03/07 11:50:44;;;;;;;7.50;5.57;;;;;;;;;;5069566;28;20057;-68
2022/03/07 11:53:10;;;;;;;8.68;6.45;;;;;;;;;;5069619;28;20104;-67
2022/03/07 11:55:42;;;;;;;9.43;5.57;;;;;;;;;;5069315;28;20054;-69
2022/03/07 11:58:08;;;;;;;7.55;5.45;;;;;;;;;;5068877;28;20423;-68
2022/03/07 12:00:35;;;;;;;7.28;5.43;;;;;;;;;;5052857;28;21851;-68
2022/03/07 12:03:14;;;;;;;6.53;5.10;;;;;;;;;;5069131;28;20040;-68
2022/03/07 12:05:40;;;;;;;9.63;6.13;;;;;;;;;;5069287;28;20035;-69
2022/03/07 12:08:06;;;;;;;9.07;5.78;;;;;;;;;;5064999;28;20024;-68
2022/03/07 12:10:31;;;;;;;7.28;5.70;;;;;;;;;;5084257;28;20038;-68
2022/03/07 12:13:07;;;;;;;7.88;6.35;;;;;;;;;;5068883;28;20162;-68
2022/03/07 12:15:41;;;;;;;9.90;5.90;;;;;;;;;;5068715;28;22317;-69
2022/03/07 12:18:09;;;;;;;8.38;6.13;;;;;;;;;;5066222;28;20147;-68
2022/03/07 12:20:44;;;;;;;7.78;5.97;;;;;;;;;;5065533;28;20130;-69
2022/03/07 12:23:09;;;;;;;8.70;6.82;;;;;;;;;;5069246;28;20042;-69
2022/03/07 12:25:36;;;;;;;8.40;6.63;;;;;;;;;;5069703;28;20074;-69
2022/03/07 12:28:04;;;;;;;9.98;6.75;;;;;;;;;;5067225;28;20677;-69
2022/03/07 12:30:30;;;;;;;8.15;6.40;;;;;;;;;;5069166;28;20358;-69
2022/03/07 12:32:55;;;;;;;8.88;6.22;;;;;;;;;;5066505;28;20032;-68
2022/03/07 12:35:23;;;;;;;7.70;6.18;;;;;;;;;;5068832;28;20035;-70
2022/03/07 12:37:48;;;;;;;7.47;6.38;;;;;;;;;;5068976;28;21822;-69
2022/03/07 12:40:14;;;;;;;8.43;6.60;;;;;;;;;;5067291;28;20415;-69
2022/03/07 12:42:42;;;;;;;8.20;6.93;;;;;;;;;;5066383;28;20067;-69
2022/03/07 12:45:08;;;;;;;8.50;6.57;;;;;;;;;;5067713;28;20036;-68
2022/03/07 12:47:35;;;;;;;9.30;6.70;;;;;;;;;;5051082;28;20150;-68
2022/03/07 12:50:03;;;;;;;9.55;6.40;;;;;;;;;;5069245;28;20506;-69
2022/03/07 12:52:29;;;;;;;8.68;7.03;;;;;;;;;;5067696;28;20030;-69
2022/03/07 12:54:56;;;;;;;8.50;6.80;;;;;;;;;;5068430;28;20478;-68
2022/03/07 12:57:21;;;;;;;9.52;6.60;;;;;;;;;;5067941;28;20040;-68
2022/03/07 12:59:48;;;;;;;9.02;6.55;;;;;;;;;;5068833;28;20028;-68
2022/03/07 13:02:16;;;;;;;8.55;6.55;;;;;;;;;;5068272;28;20032;-69
2022/03/07 13:04:41;;;;;;;8.68;6.50;;;;;;;;;;5067389;28;20032;-69
2022/03/07 13:07:08;;;;;;;9.27;6.70;;;;;;;;;;5068098;28;20036;-69
2022/03/07 13:09:34;;;;;;;8.38;6.95;;;;;;;;;;5067474;28;20085;-68
2022/03/07 13:12:03;;;;;;;8.00;6.80;;;;;;;;;;5068777;28;20039;-69
2022/03/07 13:14:30;;;;;;;7.60;6.70;;;;;;;;;;5067358;28;20048;-69
2022/03/07 13:17:03;;;;;;;11.05;7.20;;;;;;;;;;5067813;28;20127;-68
2022/03/07 13:19:29;;;;;;;10.18;7.57;;;;;;;;;;5066743;28;20532;-67
2022/03/07 13:21:54;;;;;;;8.35;6.75;;;;;;;;;;5068472;28;20050;-68
2022/03/07 13:24:25;;;;;;;8.85;7.00;;;;;;;;;;5050960;28;20036;-69
2022/03/07 13:27:05;;;;;;;11.02;7.50;;;;;;;;;;5066895;28;20063;-68
2022/03/07 13:29:32;;;;;;;9.50;7.43;;;;;;;;;;5066920;28;20028;-68
2022/03/07 13:31:59;;;;;;;9.35;7.30;;;;;;;;;;5067919;28;20495;-68
2022/03/07 13:34:24;;;;;;;11.77;7.80;;;;;;;;;;5067735;28;20127;-68
2022/03/07 13:36:51;;;;;;;11.30;7.40;;;;;;;;;;5067877;28;20084;-68
2022/03/07 13:39:28;;;;;;;11.15;7.45;;;;;;;;;;5067719;28;20081;-68
2022/03/07 13:42:13;;;;;;;9.98;7.45;;;;;;;;;;5067269;28;20024;-68
2022/03/07 13:44:53;;;;;;;9.30;6.70;;;;;;;;;;5067856;28;20051;-69
2022/03/07 13:47:22;;;;;;;8.93;6.95;;;;;;;;;;5064390;28;20485;-68
2022/03/07 13:49:52;;;;;;;11.77;7.65;;;;;;;;;;5068217;28;20129;-67
2022/03/07 13:52:18;;;;;;;9.70;7.63;;;;;;;;;;5067887;28;20024;-70
2022/03/07 13:54:44;;;;;;;10.25;7.72;;;;;;;;;;5065198;28;20402;-67
2022/03/07 13:57:10;;;;;;;10.07;7.47;;;;;;;;;;5062068;28;20286;-70
2022/03/07 13:59:35;;;;;;;10.00;7.47;;;;;;;;;;5068155;28;20040;-69
2022/03/07 14:02:16;;;;;;;9.07;7.60;;;;;;;;;;5066392;28;20091;-69
2022/03/07 14:05:13;;;;;;;11.90;7.65;;;;;;;;;;5066562;28;21909;-72
2022/03/07 14:07:45;;;;;;;9.27;7.40;;;;;;;;;;5062314;28;20284;-72
2022/03/07 14:10:17;;;;;;;12.75;7.72;;;;;;;;;;5067071;28;20027;-72
2022/03/07 14:12:53;;;;;;;9.77;7.60;;;;;;;;;;5067132;28;20032;-71
2022/03/07 14:15:27;;;;;;;11.90;7.93;;;;;;;;;;5067183;28;20295;-72
2022/03/07 14:18:02;;;;;;;9.20;7.72;;;;;;;;;;5066072;28;20034;-72
2022/03/07 14:20:28;;;;;;;10.27;7.53;;;;;;;;;;5066538;28;20086;-69
2022/03/07 14:22:53;;;;;;;11.23;8.07;;;;;;;;;;5067400;28;20100;-71
2022/03/07 14:25:19;;;;;;;10.55;7.68;;;;;;;;;;5067302;28;20639;-71
2022/03/07 14:27:44;;;;;;;11.10;7.95;;;;;;;;;;5065931;28;20028;-70
2022/03/07 14:30:12;;;;;;;10.75;7.78;;;;;;;;;;5060552;28;20025;-70
2022/03/07 14:32:37;;;;;;;10.13;7.80;;;;;;;;;;5064579;28;20992;-70
2022/03/07 14:35:03;;;;;;;11.35;8.32;;;;;;;;;;5066280;28;20023;-71